Time;durP1;ratioP1;P1;durP2;ratioP2;P2;SDS_P1;SDS_P2;PMS_P1;PMS_P2;Temp;Humidity;BMP_temperature;BMP_pressure;BME280_temperature;BME280_humidity;BME280_pressure;Samples;Min_cycle;Max_cycle;Signal;HPM_P1;HPM_P2
2022/11/03 00:00:34;;;;;;;4.93;2.88;;;17.30;59.50;;;;;;5018774;28;20604;-69
2022/11/03 00:03:02;;;;;;;3.65;2.72;;;17.30;59.20;;;;;;5018301;28;20231;-69
2022/11/03 00:08:14;;;;;;;4.57;3.10;;;17.30;59.30;;;;;;5036018;28;20204;-69
2022/11/03 00:10:41;;;;;;;4.28;2.70;;;17.20;59.30;;;;;;5032419;23;20251;-66
2022/11/03 00:13:08;;;;;;;3.58;2.75;;;17.20;59.10;;;;;;5100361;22;20235;-54
2022/11/03 00:15:35;;;;;;;3.50;2.50;;;17.20;58.90;;;;;;5033992;28;20303;-54
2022/11/03 00:18:04;;;;;;;2.50;2.30;;;17.20;59.10;;;;;;5035075;28;20204;-54
2022/11/03 00:20:31;;;;;;;3.58;2.70;;;17.20;59.00;;;;;;5035117;28;20291;-54
2022/11/03 00:22:58;;;;;;;3.65;2.85;;;17.20;59.00;;;;;;5034127;28;20207;-54
2022/11/03 00:25:26;;;;;;;3.17;2.55;;;17.20;58.90;;;;;;5035091;28;20257;-54
2022/11/03 00:27:55;;;;;;;3.22;2.72;;;17.20;58.90;;;;;;5035030;28;20185;-54
2022/11/03 00:30:22;;;;;;;3.58;2.65;;;17.20;59.00;;;;;;5034874;28;20222;-54
2022/11/03 00:32:49;;;;;;;2.85;2.63;;;17.20;59.10;;;;;;5033616;28;20283;-54
2022/11/03 00:35:18;;;;;;;3.33;2.75;;;17.20;59.20;;;;;;5034881;28;20197;-54
2022/11/03 00:37:45;;;;;;;3.65;2.80;;;17.20;59.20;;;;;;5047946;23;20219;-67
2022/11/03 00:40:12;;;;;;;3.05;2.75;;;17.20;59.00;;;;;;5037036;28;20188;-66
2022/11/03 00:42:40;;;;;;;3.85;2.80;;;17.20;59.20;;;;;;5075395;22;20698;-70
2022/11/03 00:45:08;;;;;;;3.35;2.63;;;17.20;59.10;;;;;;5035209;28;20200;-70
2022/11/03 00:48:28;;;;;;;2.95;2.60;;;17.20;59.10;;;;;;5034598;28;20223;-67
2022/11/03 00:50:24;;;;;;;2.85;2.55;;;17.20;59.00;;;;;;5034371;28;20192;-67
2022/11/03 00:52:51;;;;;;;5.22;2.97;;;17.10;58.80;;;;;;5033693;28;20540;-67
2022/11/03 00:55:18;;;;;;;3.72;2.95;;;17.10;59.20;;;;;;5034351;28;20196;-67
2022/11/03 00:57:45;;;;;;;3.22;2.63;;;17.10;59.00;;;;;;5034081;28;20231;-68
2022/11/03 01:00:13;;;;;;;3.13;2.60;;;17.10;58.90;;;;;;5034002;28;20705;-69
2022/11/03 01:02:40;;;;;;;4.05;2.85;;;17.10;59.00;;;;;;5034158;28;20200;-69
2022/11/03 01:07:54;;;;;;;4.05;2.90;;;17.10;59.00;;;;;;5034951;28;20803;-70
2022/11/03 01:10:22;;;;;;;3.05;2.75;;;17.10;59.10;;;;;;5034567;28;20204;-70
2022/11/03 01:12:49;;;;;;;3.10;2.60;;;17.10;59.00;;;;;;5088865;22;20246;-68
2022/11/03 01:15:16;;;;;;;3.85;2.75;;;17.10;58.90;;;;;;5080112;23;20232;-66
2022/11/03 01:17:45;;;;;;;2.83;2.60;;;17.10;58.80;;;;;;5047407;22;20251;-69
2022/11/03 01:20:12;;;;;;;3.42;2.90;;;17.00;59.00;;;;;;5033883;28;20199;-69
2022/11/03 01:22:39;;;;;;;2.72;2.25;;;17.00;58.80;;;;;;5033481;28;20232;-69
2022/11/03 01:25:09;;;;;;;2.78;2.58;;;17.00;58.90;;;;;;5033358;28;20212;-69
2022/11/03 01:27:36;;;;;;;3.13;2.60;;;17.00;58.90;;;;;;5034586;28;20282;-69
2022/11/03 01:30:02;;;;;;;3.97;2.70;;;17.00;58.60;;;;;;5033256;28;20250;-69
2022/11/03 01:32:30;;;;;;;3.15;2.85;;;17.00;59.10;;;;;;5033189;28;20192;-69
2022/11/03 01:34:57;;;;;;;2.95;2.65;;;17.00;59.10;;;;;;5033116;28;20250;-69
2022/11/03 01:37:24;;;;;;;3.70;3.03;;;17.00;58.80;;;;;;5032940;28;20220;-69
2022/11/03 01:39:52;;;;;;;2.95;2.65;;;17.00;58.70;;;;;;5034368;28;20565;-69
2022/11/03 01:42:20;;;;;;;3.53;2.60;;;17.00;58.70;;;;;;5033117;28;20262;-69
2022/11/03 01:44:48;;;;;;;2.85;2.60;;;17.00;58.90;;;;;;5016733;28;20204;-69
2022/11/03 01:47:19;;;;;;;3.22;2.70;;;17.00;58.90;;;;;;5033019;28;20220;-69
2022/11/03 01:49:48;;;;;;;3.72;3.10;;;17.00;58.90;;;;;;5033491;28;20180;-69
2022/11/03 01:52:18;;;;;;;3.15;2.83;;;17.00;58.90;;;;;;5032914;28;20203;-69
2022/11/03 01:54:46;;;;;;;3.13;2.80;;;17.00;58.90;;;;;;5032802;28;20538;-69
2022/11/03 01:57:15;;;;;;;3.22;2.78;;;17.00;59.10;;;;;;5032842;28;20220;-69
2022/11/03 01:59:43;;;;;;;2.85;2.50;;;16.90;58.90;;;;;;5032940;28;20277;-69
2022/11/03 02:02:11;;;;;;;3.20;2.90;;;16.90;59.10;;;;;;5034287;28;20199;-69
2022/11/03 02:04:37;;;;;;;4.97;3.15;;;16.90;58.50;;;;;;5032577;28;20560;-69
2022/11/03 02:07:11;;;;;;;3.90;2.63;;;16.90;58.90;;;;;;5032694;28;20234;-69
2022/11/03 02:09:38;;;;;;;3.47;2.65;;;16.90;58.90;;;;;;5032917;28;20196;-69
2022/11/03 02:12:08;;;;;;;3.33;2.80;;;16.90;59.50;;;;;;5032581;28;20200;-69
2022/11/03 02:14:39;;;;;;;3.20;2.88;;;16.90;58.70;;;;;;5033092;28;20267;-69
2022/11/03 02:17:09;;;;;;;3.40;2.72;;;16.90;58.80;;;;;;5032298;28;20211;-69
2022/11/03 02:19:38;;;;;;;3.60;2.80;;;16.90;59.00;;;;;;5032370;28;20212;-69
2022/11/03 02:22:14;;;;;;;3.55;2.85;;;16.80;58.80;;;;;;5016106;28;20215;-69
2022/11/03 02:24:44;;;;;;;4.07;3.25;;;16.90;58.80;;;;;;5032497;28;20223;-70
2022/11/03 02:27:12;;;;;;;3.78;2.72;;;16.80;58.70;;;;;;5032497;28;20725;-70
2022/11/03 02:29:39;;;;;;;3.40;2.70;;;16.80;58.60;;;;;;5032407;28;20651;-70
2022/11/03 02:32:09;;;;;;;3.80;2.80;;;16.80;58.90;;;;;;5093785;22;20230;-67
2022/11/03 02:34:39;;;;;;;3.17;2.83;;;16.80;58.60;;;;;;5145806;23;20262;-55
2022/11/03 02:37:10;;;;;;;4.40;2.95;;;16.80;58.80;;;;;;5032870;28;20207;-55
2022/11/03 02:39:38;;;;;;;3.00;2.70;;;16.80;58.70;;;;;;5031430;28;20231;-55
2022/11/03 02:42:05;;;;;;;3.50;2.78;;;16.80;58.70;;;;;;5033676;28;20276;-55
2022/11/03 02:44:34;;;;;;;3.85;3.08;;;16.80;58.90;;;;;;5031669;28;20196;-55
2022/11/03 02:47:03;;;;;;;3.05;2.75;;;16.80;58.70;;;;;;5066448;22;20254;-66
2022/11/03 02:49:30;;;;;;;3.17;2.88;;;16.80;58.60;;;;;;5015874;28;20200;-66
2022/11/03 02:52:01;;;;;;;3.60;2.60;;;16.70;58.60;;;;;;5015522;28;20210;-66
2022/11/03 02:54:29;;;;;;;2.65;2.40;;;16.70;58.70;;;;;;5015813;28;20561;-66
2022/11/03 02:57:00;;;;;;;3.05;2.78;;;16.70;58.70;;;;;;5015382;28;20291;-66
2022/11/03 02:59:29;;;;;;;2.90;2.70;;;16.70;58.80;;;;;;5015324;28;20572;-66
2022/11/03 03:01:59;;;;;;;3.88;2.60;;;16.70;59.00;;;;;;4999511;28;20605;-66
2022/11/03 03:04:28;;;;;;;3.25;2.95;;;16.70;58.60;;;;;;5015513;28;20560;-66
2022/11/03 03:06:57;;;;;;;3.35;2.97;;;16.70;58.70;;;;;;5015671;28;20200;-66
2022/11/03 03:09:27;;;;;;;3.28;2.95;;;16.70;58.60;;;;;;5015586;28;20239;-66
2022/11/03 03:11:55;;;;;;;4.13;3.30;;;16.70;58.60;;;;;;5015451;28;20258;-66
2022/11/03 03:14:23;;;;;;;3.00;2.70;;;16.70;58.80;;;;;;5033098;28;20650;-66
2022/11/03 03:16:53;;;;;;;3.45;3.15;;;16.70;58.70;;;;;;5019343;28;20246;-66
2022/11/03 03:19:28;;;;;;;3.08;2.78;;;16.60;58.70;;;;;;5037075;28;20682;-66
2022/11/03 03:21:57;;;;;;;3.33;2.90;;;16.70;58.90;;;;;;5019380;28;20192;-66
2022/11/03 03:24:28;;;;;;;3.47;3.00;;;16.60;58.70;;;;;;5020039;28;20254;-66
2022/11/03 03:26:57;;;;;;;2.97;2.67;;;16.60;58.80;;;;;;5020486;28;20196;-66
2022/11/03 03:29:26;;;;;;;3.47;2.80;;;16.60;59.10;;;;;;5019029;28;20200;-66
2022/11/03 03:31:55;;;;;;;3.22;2.92;;;16.60;58.70;;;;;;5019424;28;20211;-65
2022/11/03 03:34:24;;;;;;;4.88;3.13;;;16.60;59.00;;;;;;5018844;28;20207;-65
2022/11/03 03:36:51;;;;;;;4.13;2.80;;;16.60;58.70;;;;;;5036328;28;20192;-65
2022/11/03 03:39:18;;;;;;;2.95;2.75;;;16.60;58.90;;;;;;5036229;28;20697;-65
2022/11/03 03:41:45;;;;;;;3.88;2.90;;;16.60;58.60;;;;;;5019363;28;20519;-65
2022/11/03 03:44:12;;;;;;;3.08;2.85;;;16.60;58.80;;;;;;5018610;28;20208;-65
2022/11/03 03:46:42;;;;;;;4.90;3.00;;;16.60;58.70;;;;;;5036123;28;20200;-65
2022/11/03 03:49:09;;;;;;;2.92;2.70;;;16.60;58.60;;;;;;5018370;28;20216;-65
2022/11/03 03:51:37;;;;;;;3.33;2.72;;;16.60;58.50;;;;;;5018431;28;20232;-65
2022/11/03 03:54:05;;;;;;;3.65;2.60;;;16.60;58.70;;;;;;5018343;28;20200;-65
2022/11/03 03:56:33;;;;;;;3.22;2.78;;;16.50;58.60;;;;;;5018330;28;20231;-65
2022/11/03 03:59:01;;;;;;;3.60;2.90;;;16.60;58.60;;;;;;5018102;28;20223;-65
2022/11/03 04:01:28;;;;;;;3.72;3.42;;;16.60;58.40;;;;;;5018414;28;20200;-65
2022/11/03 04:03:55;;;;;;;3.30;3.00;;;16.60;58.60;;;;;;5018186;28;20203;-65
2022/11/03 04:06:22;;;;;;;4.18;2.90;;;16.50;58.40;;;;;;5018397;28;20278;-65
2022/11/03 04:08:50;;;;;;;4.07;3.17;;;16.50;58.20;;;;;;5017906;28;20216;-65
2022/11/03 04:22:20;;;;;;;2.90;2.60;;;16.50;59.10;;;;;;5018026;28;20631;-65
2022/11/03 04:24:49;;;;;;;3.63;3.00;;;16.50;58.50;;;;;;5017847;28;20192;-65
2022/11/03 04:27:27;;;;;;;3.03;2.70;;;16.60;58.50;;;;;;5017547;28;20212;-65
2022/11/03 04:29:56;;;;;;;3.63;2.90;;;16.50;58.40;;;;;;5017682;28;20639;-65
2022/11/03 04:32:23;;;;;;;3.40;3.10;;;16.50;58.20;;;;;;5017768;28;20258;-66
2022/11/03 04:34:50;;;;;;;3.33;2.88;;;16.60;58.10;;;;;;5017653;28;20682;-66
2022/11/03 04:37:18;;;;;;;3.25;2.95;;;16.50;58.40;;;;;;5035362;28;20212;-66
2022/11/03 04:39:45;;;;;;;3.10;2.90;;;16.60;58.60;;;;;;5017437;28;20705;-66
2022/11/03 04:42:16;;;;;;;3.50;3.05;;;16.60;58.50;;;;;;5017534;28;20250;-66
2022/11/03 04:44:43;;;;;;;3.55;2.95;;;16.60;58.70;;;;;;5035500;28;20187;-66
2022/11/03 04:47:11;;;;;;;3.13;2.78;;;16.60;58.40;;;;;;5017232;28;20652;-66
2022/11/03 04:49:38;;;;;;;2.90;2.60;;;16.60;58.30;;;;;;5017654;28;20197;-66
2022/11/03 04:52:06;;;;;;;3.13;2.83;;;16.60;58.30;;;;;;5017260;28;20669;-66
2022/11/03 04:54:33;;;;;;;3.35;3.05;;;16.60;58.50;;;;;;5035195;28;20716;-66
2022/11/03 04:57:01;;;;;;;3.67;2.70;;;16.60;58.30;;;;;;5034832;28;20195;-66
2022/11/03 04:59:31;;;;;;;3.08;2.70;;;16.60;58.20;;;;;;5017330;28;20248;-66
2022/11/03 05:01:58;;;;;;;3.47;3.10;;;16.60;58.20;;;;;;5017537;28;20196;-66
2022/11/03 05:04:25;;;;;;;3.72;2.70;;;16.60;58.20;;;;;;5018008;28;20254;-66
2022/11/03 05:06:52;;;;;;;3.08;2.88;;;16.60;58.60;;;;;;5016993;28;20196;-66
2022/11/03 05:09:23;;;;;;;3.00;2.53;;;16.60;58.10;;;;;;5017189;28;20643;-66
2022/11/03 05:11:50;;;;;;;3.53;2.72;;;16.70;58.30;;;;;;5018083;28;20249;-66
2022/11/03 05:14:20;;;;;;;3.20;2.90;;;16.70;58.10;;;;;;5034696;28;20188;-66
2022/11/03 05:16:50;;;;;;;3.63;3.03;;;16.60;57.90;;;;;;5016746;28;20207;-66
2022/11/03 05:19:20;;;;;;;3.72;2.85;;;16.70;58.00;;;;;;5017660;28;20694;-66
2022/11/03 05:21:48;;;;;;;2.50;2.30;;;16.70;58.20;;;;;;5017027;28;20196;-66
2022/11/03 05:24:16;;;;;;;2.85;2.65;;;16.70;58.40;;;;;;5034916;28;20216;-66
2022/11/03 05:26:44;;;;;;;3.28;2.97;;;16.70;58.00;;;;;;5024400;28;20193;-66
2022/11/03 05:29:14;;;;;;;3.33;2.80;;;16.70;58.00;;;;;;5017885;28;20216;-66
2022/11/03 05:31:42;;;;;;;3.08;2.80;;;16.80;58.40;;;;;;5016701;28;20188;-66
2022/11/03 05:34:28;;;;;;;3.65;2.75;;;16.70;58.40;;;;;;5016542;28;20340;-66
2022/11/03 05:36:55;;;;;;;2.92;2.72;;;16.70;58.10;;;;;;5016735;28;20185;-66
2022/11/03 05:39:30;;;;;;;3.50;3.05;;;16.70;58.70;;;;;;5017490;28;20216;-67
2022/11/03 05:41:58;;;;;;;2.95;2.47;;;16.70;58.60;;;;;;5016653;28;20199;-67
2022/11/03 05:44:28;;;;;;;3.35;2.60;;;16.60;58.60;;;;;;5017422;28;20204;-66
2022/11/03 05:46:56;;;;;;;3.22;2.78;;;16.60;58.80;;;;;;5016402;28;20200;-67
2022/11/03 05:49:25;;;;;;;3.70;2.85;;;16.60;59.00;;;;;;5016287;28;20739;-67
2022/11/03 05:51:52;;;;;;;2.70;2.50;;;16.60;59.00;;;;;;5016275;28;20627;-67
2022/11/03 05:54:23;;;;;;;2.92;2.70;;;16.60;58.90;;;;;;5034066;28;20220;-67
2022/11/03 05:56:50;;;;;;;3.03;2.83;;;16.60;59.20;;;;;;5016539;28;20200;-67
2022/11/03 05:59:19;;;;;;;2.97;2.67;;;16.50;58.90;;;;;;5033963;28;20211;-67
2022/11/03 06:01:46;;;;;;;3.47;3.10;;;16.60;58.80;;;;;;5034261;28;20646;-67
2022/11/03 06:04:21;;;;;;;3.00;2.70;;;16.50;58.40;;;;;;5034083;28;20192;-66
2022/11/03 06:06:51;;;;;;;3.88;2.92;;;16.50;58.60;;;;;;5034440;28;20180;-66
2022/11/03 06:09:19;;;;;;;4.22;2.72;;;16.50;58.40;;;;;;5016573;28;20246;-66
2022/11/03 06:11:46;;;;;;;3.55;3.20;;;16.50;58.20;;;;;;5033896;28;20274;-66
2022/11/03 06:14:17;;;;;;;3.28;2.90;;;16.50;57.70;;;;;;5016131;28;20254;-66
2022/11/03 06:16:44;;;;;;;8.88;3.95;;;16.50;57.80;;;;;;5016149;28;20286;-66
2022/11/03 06:19:21;;;;;;;3.92;3.10;;;16.60;58.60;;;;;;5015766;28;20220;-66
2022/11/03 06:21:50;;;;;;;3.45;3.15;;;16.50;58.90;;;;;;5015843;28;20207;-66
2022/11/03 06:24:18;;;;;;;4.35;3.00;;;16.50;58.90;;;;;;5015827;28;20552;-66
2022/11/03 06:26:45;;;;;;;2.70;2.50;;;16.50;59.30;;;;;;5015775;28;20211;-66
2022/11/03 06:29:14;;;;;;;4.00;3.10;;;16.50;58.90;;;;;;5033666;28;20208;-66
2022/11/03 06:31:41;;;;;;;3.22;3.03;;;16.50;58.90;;;;;;5015732;28;20208;-66
2022/11/03 06:34:17;;;;;;;3.75;2.90;;;16.60;59.10;;;;;;5015696;28;20704;-66
2022/11/03 06:36:44;;;;;;;3.40;3.10;;;16.60;59.10;;;;;;5034184;28;20176;-66
2022/11/03 06:39:16;;;;;;;4.25;3.10;;;16.60;58.80;;;;;;5015826;28;20216;-66
2022/11/03 06:41:44;;;;;;;4.55;3.13;;;16.60;59.10;;;;;;5015594;28;20196;-67
2022/11/03 06:44:19;;;;;;;3.53;2.70;;;16.60;58.90;;;;;;5033457;28;20188;-66
2022/11/03 06:46:47;;;;;;;3.55;3.22;;;16.60;59.30;;;;;;5015940;28;20207;-67
2022/11/03 06:49:27;;;;;;;3.42;2.72;;;16.60;59.60;;;;;;5016930;28;20208;-67
2022/11/03 06:51:55;;;;;;;4.82;2.55;;;16.60;59.30;;;;;;5019760;28;20291;-67
2022/11/03 06:54:23;;;;;;;3.50;3.20;;;16.60;59.10;;;;;;5019509;28;20207;-67
2022/11/03 06:56:50;;;;;;;3.22;2.80;;;16.60;59.00;;;;;;5019356;28;20210;-69
2022/11/03 06:59:17;;;;;;;3.13;2.83;;;16.70;58.80;;;;;;5021016;28;20227;-67
2022/11/03 07:01:44;;;;;;;3.28;2.97;;;16.70;58.70;;;;;;5019507;28;20200;-69
2022/11/03 07:04:15;;;;;;;2.72;2.53;;;16.60;58.30;;;;;;5019277;28;20254;-67
2022/11/03 07:06:42;;;;;;;4.30;2.63;;;16.70;58.20;;;;;;5019556;28;20203;-66
2022/11/03 07:09:13;;;;;;;3.30;3.00;;;16.70;58.50;;;;;;5019115;28;20593;-66
2022/11/03 07:11:44;;;;;;;3.22;2.92;;;16.70;58.50;;;;;;5019494;28;20693;-66
2022/11/03 07:14:12;;;;;;;4.50;3.20;;;16.70;58.20;;;;;;5019276;28;20196;-66
2022/11/03 07:16:41;;;;;;;3.28;2.97;;;16.70;58.20;;;;;;5019173;28;20215;-66
2022/11/03 07:19:12;;;;;;;3.55;3.20;;;16.70;58.20;;;;;;5019112;28;20220;-66
2022/11/03 07:21:41;;;;;;;3.08;2.78;;;16.70;58.20;;;;;;5018890;28;20654;-66
2022/11/03 07:24:14;;;;;;;3.72;3.33;;;16.80;58.10;;;;;;5036939;28;20341;-66
2022/11/03 07:26:43;;;;;;;3.90;2.92;;;16.80;57.90;;;;;;5018880;28;20232;-66
2022/11/03 07:29:14;;;;;;;3.35;2.95;;;16.80;58.10;;;;;;5018808;28;20247;-66
2022/11/03 07:31:42;;;;;;;4.50;2.95;;;16.80;58.00;;;;;;5018951;28;20573;-66
2022/11/03 07:34:11;;;;;;;5.32;2.92;;;16.90;57.90;;;;;;5018850;28;20672;-67
2022/11/03 07:36:38;;;;;;;3.22;2.88;;;16.90;58.00;;;;;;5018997;28;20207;-67
2022/11/03 07:39:05;;;;;;;3.33;2.97;;;17.00;57.50;;;;;;5002341;28;20719;-67
2022/11/03 07:41:33;;;;;;;3.22;2.92;;;17.10;57.80;;;;;;5018878;28;20214;-67
2022/11/03 07:44:01;;;;;;;3.75;2.70;;;17.10;57.60;;;;;;5018607;28;20208;-67
2022/11/03 07:46:28;;;;;;;3.72;2.97;;;17.20;57.70;;;;;;5018380;28;20617;-67
2022/11/03 07:48:56;;;;;;;3.35;3.05;;;17.30;57.30;;;;;;5018607;28;20224;-67
2022/11/03 07:51:24;;;;;;;2.90;2.70;;;17.40;57.60;;;;;;5018456;28;20279;-67
2022/11/03 07:53:52;;;;;;;4.88;2.92;;;17.40;57.50;;;;;;5018370;28;20669;-67
2022/11/03 07:56:20;;;;;;;3.05;2.60;;;17.40;57.30;;;;;;5018656;28;20300;-67
2022/11/03 07:58:49;;;;;;;3.92;2.92;;;17.40;57.20;;;;;;5036193;28;20216;-67
2022/11/03 08:01:25;;;;;;;2.80;2.60;;;17.50;56.90;;;;;;5017715;28;20220;-67
2022/11/03 08:03:52;;;;;;;3.38;2.97;;;17.60;57.10;;;;;;5036134;28;20183;-67
2022/11/03 08:06:19;;;;;;;4.07;3.08;;;17.60;56.90;;;;;;5018514;28;20197;-67
2022/11/03 08:08:46;;;;;;;3.28;2.97;;;17.60;56.90;;;;;;5018274;28;20216;-66
2022/11/03 08:11:13;;;;;;;4.60;3.00;;;17.70;56.70;;;;;;5018178;28;20192;-66
2022/11/03 08:13:40;;;;;;;3.58;3.28;;;17.80;56.70;;;;;;5018252;28;20207;-66
2022/11/03 08:16:08;;;;;;;3.38;3.13;;;17.80;56.30;;;;;;5018183;28;20230;-66
2022/11/03 08:18:36;;;;;;;3.20;2.90;;;17.80;55.90;;;;;;5035960;28;20212;-66
2022/11/03 08:21:04;;;;;;;3.20;2.83;;;17.80;55.80;;;;;;5018380;28;20286;-66
2022/11/03 08:23:31;;;;;;;3.50;3.00;;;17.80;56.00;;;;;;5036012;28;20193;-66
2022/11/03 08:25:58;;;;;;;4.15;3.17;;;17.80;56.00;;;;;;5018322;28;20188;-66
2022/11/03 08:28:26;;;;;;;3.13;2.83;;;17.90;55.70;;;;;;5018149;28;20262;-66
2022/11/03 08:30:53;;;;;;;3.80;3.22;;;17.90;55.70;;;;;;5035656;28;20552;-66
2022/11/03 08:33:20;;;;;;;3.40;3.10;;;17.90;55.60;;;;;;5017910;28;20208;-66
2022/11/03 08:35:49;;;;;;;3.53;3.05;;;17.90;55.70;;;;;;5018140;28;20215;-66
2022/11/03 08:38:16;;;;;;;3.50;3.20;;;17.90;55.70;;;;;;5035942;28;20220;-66
2022/11/03 08:40:43;;;;;;;3.92;3.53;;;17.90;55.40;;;;;;5018389;28;20220;-66
2022/11/03 08:43:10;;;;;;;3.47;3.00;;;18.00;55.60;;;;;;5018027;28;20206;-66
2022/11/03 08:45:37;;;;;;;4.10;2.80;;;18.00;55.80;;;;;;5018320;28;20203;-66
2022/11/03 08:48:05;;;;;;;3.83;2.83;;;18.00;55.70;;;;;;5001594;28;20228;-66
2022/11/03 08:50:32;;;;;;;3.03;2.72;;;18.00;55.80;;;;;;5017517;28;20203;-66
2022/11/03 08:53:00;;;;;;;3.25;2.63;;;18.10;55.70;;;;;;5035463;28;20730;-66
2022/11/03 08:55:27;;;;;;;3.63;3.20;;;18.10;55.90;;;;;;5017280;28;20196;-66
2022/11/03 08:57:54;;;;;;;3.65;3.20;;;18.10;55.40;;;;;;5035193;28;20204;-66
2022/11/03 09:00:22;;;;;;;3.75;3.30;;;18.10;55.60;;;;;;5034871;28;20216;-66
2022/11/03 09:02:49;;;;;;;3.30;3.00;;;18.10;55.60;;;;;;5017273;28;20196;-66
2022/11/03 09:05:16;;;;;;;3.80;3.00;;;18.10;55.70;;;;;;5017314;28;20199;-66
2022/11/03 09:07:43;;;;;;;3.80;3.22;;;18.20;55.60;;;;;;5017253;28;20588;-66
2022/11/03 09:10:12;;;;;;;3.25;2.95;;;18.20;55.70;;;;;;5017051;28;20196;-66
2022/11/03 09:12:39;;;;;;;3.45;3.15;;;18.20;56.20;;;;;;5015955;28;20192;-66
2022/11/03 09:15:08;;;;;;;3.35;2.90;;;18.20;55.40;;;;;;5017205;28;20199;-66
2022/11/03 09:17:35;;;;;;;4.72;3.08;;;18.20;55.60;;;;;;5034226;28;20620;-66
2022/11/03 09:20:02;;;;;;;3.15;2.80;;;18.20;55.50;;;;;;5035027;28;20266;-66
2022/11/03 09:22:29;;;;;;;4.10;2.80;;;18.20;55.50;;;;;;5016679;28;20207;-66
2022/11/03 09:24:57;;;;;;;4.20;3.17;;;18.30;55.50;;;;;;5016901;28;20204;-66
2022/11/03 09:27:25;;;;;;;3.28;2.97;;;18.30;55.50;;;;;;5017121;28;20224;-66
2022/11/03 09:29:52;;;;;;;3.72;3.03;;;18.30;55.30;;;;;;5016849;28;20254;-66
2022/11/03 09:32:19;;;;;;;3.15;2.85;;;18.40;55.70;;;;;;5034392;28;20194;-66
2022/11/03 09:34:46;;;;;;;3.35;3.05;;;18.30;55.40;;;;;;5016479;28;20200;-66
2022/11/03 09:37:13;;;;;;;3.28;2.95;;;18.30;55.20;;;;;;5034046;28;20212;-66
2022/11/03 09:39:39;;;;;;;3.55;2.80;;;18.40;55.20;;;;;;5016517;28;20208;-66
2022/11/03 09:42:07;;;;;;;4.03;3.60;;;18.40;55.30;;;;;;5016331;28;20199;-66
2022/11/03 09:44:36;;;;;;;3.85;3.42;;;18.40;55.40;;;;;;5016738;28;20203;-66
2022/11/03 09:47:03;;;;;;;3.88;3.00;;;18.40;55.10;;;;;;5016247;28;20298;-66
2022/11/03 09:49:31;;;;;;;4.20;3.33;;;18.40;55.20;;;;;;5016999;28;20378;-66
2022/11/03 09:51:58;;;;;;;4.07;2.78;;;18.50;55.10;;;;;;5016368;28;20250;-66
2022/11/03 09:54:26;;;;;;;3.80;3.40;;;18.50;55.00;;;;;;5017434;28;20574;-66
2022/11/03 09:56:57;;;;;;;3.42;2.97;;;18.50;55.10;;;;;;5016012;28;20203;-66
2022/11/03 09:59:24;;;;;;;4.05;3.13;;;18.50;54.70;;;;;;5016142;28;20196;-66
2022/11/03 10:01:53;;;;;;;3.65;3.25;;;18.60;54.80;;;;;;5016916;28;20558;-66
2022/11/03 10:04:25;;;;;;;3.15;2.88;;;18.60;54.70;;;;;;5033940;28;20196;-67
2022/11/03 10:06:53;;;;;;;3.65;3.30;;;18.60;54.80;;;;;;5015982;28;20677;-67
2022/11/03 10:09:22;;;;;;;5.00;3.10;;;18.60;54.50;;;;;;5016031;28;20639;-67
2022/11/03 10:11:49;;;;;;;3.72;2.90;;;18.60;54.60;;;;;;5015976;28;20750;-67
2022/11/03 10:14:17;;;;;;;3.15;2.85;;;18.60;54.40;;;;;;5015840;28;20210;-66
2022/11/03 10:16:43;;;;;;;3.78;3.20;;;18.60;54.50;;;;;;5015891;28;20187;-66
2022/11/03 10:19:13;;;;;;;5.38;3.40;;;18.60;54.70;;;;;;5016669;28;20281;-66
2022/11/03 10:21:40;;;;;;;3.08;2.70;;;18.60;54.80;;;;;;5033776;28;20208;-66
2022/11/03 10:24:11;;;;;;;3.42;2.72;;;18.60;54.90;;;;;;5033278;28;20616;-66
2022/11/03 10:26:45;;;;;;;3.20;2.70;;;18.60;54.80;;;;;;5016626;28;20253;-66
2022/11/03 10:29:18;;;;;;;4.03;2.85;;;18.60;55.10;;;;;;5015737;28;20590;-66
2022/11/03 10:31:48;;;;;;;2.85;2.58;;;18.60;55.00;;;;;;5016046;28;20193;-66
2022/11/03 10:34:33;;;;;;;2.92;2.58;;;18.60;55.20;;;;;;5016143;28;20218;-66
2022/11/03 10:37:16;;;;;;;3.72;2.80;;;18.60;55.30;;;;;;5016838;28;20263;-66
2022/11/03 10:39:43;;;;;;;3.92;2.63;;;18.60;55.30;;;;;;5016920;28;20188;-66
2022/11/03 10:42:17;;;;;;;4.03;2.92;;;18.60;55.30;;;;;;5018919;28;20227;-66
2022/11/03 10:44:44;;;;;;;3.00;2.65;;;18.60;55.30;;;;;;5027481;28;20188;-66
2022/11/03 10:47:24;;;;;;;3.75;2.72;;;18.60;55.40;;;;;;5016563;28;20275;-66
2022/11/03 10:49:54;;;;;;;2.83;2.45;;;18.60;55.50;;;;;;5018035;28;20205;-66
2022/11/03 10:52:22;;;;;;;2.90;2.70;;;18.60;55.50;;;;;;5016258;28;20290;-66
2022/11/03 10:54:49;;;;;;;4.88;2.95;;;18.60;55.50;;;;;;5016043;28;20200;-66
2022/11/03 10:57:16;;;;;;;3.17;2.78;;;18.60;55.30;;;;;;5015796;28;20211;-66
2022/11/03 10:59:44;;;;;;;4.30;3.03;;;18.60;55.50;;;;;;5016437;28;20643;-66
2022/11/03 11:02:17;;;;;;;4.07;3.20;;;18.60;55.50;;;;;;5033435;28;20208;-66
2022/11/03 11:04:44;;;;;;;3.53;3.20;;;18.60;56.00;;;;;;5016126;28;20275;-66
2022/11/03 11:07:22;;;;;;;3.25;2.83;;;18.60;55.50;;;;;;5015777;28;20653;-66
2022/11/03 11:09:49;;;;;;;3.65;2.97;;;18.60;55.60;;;;;;5016248;28;20595;-66
2022/11/03 11:12:17;;;;;;;3.50;2.83;;;18.60;55.40;;;;;;5015539;28;20192;-66
2022/11/03 11:14:54;;;;;;;3.83;2.95;;;18.60;55.50;;;;;;5033278;28;20199;-66
2022/11/03 11:17:45;;;;;;;3.22;2.90;;;18.60;55.40;;;;;;5015785;28;20223;-66
2022/11/03 11:20:41;;;;;;;4.22;3.13;;;18.60;55.40;;;;;;5016147;28;20200;-66
2022/11/03 11:23:48;;;;;;;4.25;3.25;;;18.60;55.10;;;;;;5016660;28;20219;-66
2022/11/03 11:26:41;;;;;;;3.78;3.10;;;18.60;55.20;;;;;;5016218;28;20545;-66
2022/11/03 11:29:42;;;;;;;3.20;2.90;;;18.60;55.10;;;;;;5015380;28;20717;-66
2022/11/03 11:32:46;;;;;;;3.13;2.92;;;18.60;55.30;;;;;;5015463;28;20623;-66
2022/11/03 11:35:17;;;;;;;4.10;3.00;;;18.60;55.10;;;;;;5032944;28;20172;-66
2022/11/03 11:37:43;;;;;;;3.72;2.97;;;18.60;55.20;;;;;;5036209;28;20208;-66
2022/11/03 11:40:12;;;;;;;5.60;3.65;;;18.60;55.10;;;;;;5018910;28;20675;-66
2022/11/03 11:43:13;;;;;;;3.03;2.72;;;18.60;55.10;;;;;;5018652;28;20291;-66
2022/11/03 11:46:18;;;;;;;3.00;2.80;;;18.60;55.10;;;;;;5018713;28;20198;-66
2022/11/03 11:48:49;;;;;;;3.35;3.05;;;18.60;55.10;;;;;;5018673;28;20223;-66
2022/11/03 11:51:16;;;;;;;3.80;3.20;;;18.60;55.30;;;;;;5018357;28;20184;-66
2022/11/03 11:53:43;;;;;;;4.60;3.13;;;18.60;55.30;;;;;;5018576;28;20200;-66
2022/11/03 11:56:11;;;;;;;4.95;3.38;;;18.60;55.30;;;;;;5018411;28;20200;-66
2022/11/03 11:58:41;;;;;;;3.30;2.80;;;18.60;55.10;;;;;;5002588;28;20223;-66
2022/11/03 12:01:20;;;;;;;3.95;2.90;;;18.60;55.30;;;;;;5018110;28;20231;-66
2022/11/03 12:03:48;;;;;;;3.58;2.72;;;18.60;55.40;;;;;;5018304;28;20196;-66
2022/11/03 12:06:16;;;;;;;3.70;2.78;;;18.60;55.40;;;;;;5018590;28;20204;-66
2022/11/03 12:08:43;;;;;;;3.00;2.70;;;18.60;55.50;;;;;;5036123;28;20240;-66
2022/11/03 12:11:11;;;;;;;3.33;3.03;;;18.60;55.30;;;;;;5018266;28;20196;-66
2022/11/03 12:13:47;;;;;;;4.03;3.05;;;18.60;55.40;;;;;;5018390;28;20200;-66
2022/11/03 12:16:30;;;;;;;3.35;2.58;;;18.70;55.40;;;;;;5018092;28;20200;-66
2022/11/03 12:19:25;;;;;;;4.45;3.15;;;18.60;55.40;;;;;;5017834;28;20215;-66
2022/11/03 12:21:52;;;;;;;3.60;2.80;;;18.60;55.20;;;;;;5018583;28;20223;-66
2022/11/03 12:24:26;;;;;;;4.07;2.75;;;18.60;55.20;;;;;;5035434;28;20271;-66
2022/11/03 12:26:54;;;;;;;3.00;2.70;;;18.60;55.20;;;;;;5035480;28;20215;-66
2022/11/03 12:29:21;;;;;;;3.35;3.05;;;18.70;55.30;;;;;;5035688;28;20192;-66
2022/11/03 12:31:48;;;;;;;3.65;2.72;;;18.70;55.40;;;;;;5017683;28;20200;-66
2022/11/03 12:34:16;;;;;;;2.88;2.35;;;18.60;55.40;;;;;;5035618;28;20196;-66
2022/11/03 12:36:44;;;;;;;3.63;2.47;;;18.60;55.40;;;;;;5017865;28;20203;-66
2022/11/03 12:39:12;;;;;;;3.00;2.70;;;18.60;55.40;;;;;;5017458;28;20254;-66
2022/11/03 12:41:38;;;;;;;3.85;2.78;;;18.60;55.40;;;;;;5035272;28;20574;-66
2022/11/03 12:44:06;;;;;;;2.88;2.50;;;18.60;55.50;;;;;;5017502;28;20200;-66
2022/11/03 12:46:33;;;;;;;3.05;2.60;;;18.60;55.50;;;;;;5035085;28;20249;-66
2022/11/03 12:49:00;;;;;;;2.75;2.55;;;18.60;55.60;;;;;;5035229;28;20578;-66
2022/11/03 12:51:29;;;;;;;3.08;2.78;;;18.60;55.50;;;;;;5035539;28;20193;-66
2022/11/03 12:53:56;;;;;;;3.15;2.85;;;18.60;55.60;;;;;;5017199;28;20199;-66
2022/11/03 12:56:23;;;;;;;3.28;2.83;;;18.60;55.60;;;;;;5017285;28;20207;-66
2022/11/03 12:58:50;;;;;;;3.67;2.80;;;18.60;55.60;;;;;;5034936;28;20208;-66
2022/11/03 13:01:18;;;;;;;2.67;2.47;;;18.60;56.20;;;;;;5017009;28;20223;-66
2022/11/03 13:03:45;;;;;;;2.92;2.70;;;18.60;55.70;;;;;;5035129;28;20192;-66
2022/11/03 13:06:13;;;;;;;2.50;2.30;;;18.60;55.70;;;;;;5034792;28;20242;-66
2022/11/03 13:08:41;;;;;;;2.65;2.40;;;18.60;55.70;;;;;;5034802;28;20216;-66
2022/11/03 13:12:30;;;;;;;3.33;2.63;;;18.60;55.80;;;;;;5017209;28;20226;-66
2022/11/03 13:13:55;;;;;;;2.97;2.35;;;18.60;55.80;;;;;;5016785;28;20196;-66
2022/11/03 13:16:23;;;;;;;2.70;2.50;;;18.60;55.80;;;;;;5017138;28;20211;-66